createdAt,value
2023-04-14T00:00:00.390Z,99643.16
2023-04-14T00:02:27.520Z,99633.63
2023-04-14T00:04:55.127Z,99639.09
2023-04-14T00:07:22.370Z,99634.72
2023-04-14T00:09:49.629Z,99628.03
2023-04-14T00:12:16.674Z,99616.41
2023-04-14T00:14:43.727Z,99615.75
2023-04-14T00:17:11.456Z,99611.03
2023-04-14T00:19:38.668Z,99608.94
2023-04-14T00:22:05.757Z,99617.47
2023-04-14T00:24:32.819Z,99611.19
2023-04-14T00:26:59.896Z,99604.53
2023-04-14T00:29:27.014Z,99614.06
2023-04-14T00:31:54.236Z,99609.63
2023-04-14T00:34:21.319Z,99604.03
2023-04-14T00:36:48.340Z,99610.72
2023-04-14T00:39:15.567Z,99611.31
2023-04-14T00:41:43.361Z,99613.84
2023-04-14T00:44:10.546Z,99607.63
2023-04-14T00:46:37.749Z,99611.19
2023-04-14T00:49:05.099Z,99615.28
2023-04-14T00:51:33.803Z,99615.22
2023-04-14T00:54:02.903Z,99623.63
2023-04-14T00:56:31.385Z,99630.09
2023-04-14T00:59:01.477Z,99626.25
2023-04-14T01:01:29.505Z,99622.50
2023-04-14T01:03:57.786Z,99619.53
2023-04-14T01:06:24.910Z,99619.66
2023-04-14T01:08:51.954Z,99607.34
2023-04-14T01:11:18.959Z,99613.69
2023-04-14T01:13:53.896Z,99610.34
2023-04-14T01:16:28.713Z,99612.44
2023-04-14T01:19:01.117Z,99618.44
2023-04-14T01:21:35.519Z,99618.09
2023-04-14T01:24:26.189Z,99629.63
2023-04-14T01:27:02.960Z,99629.50
2023-04-14T01:29:49.232Z,99626.78
2023-04-14T01:32:20.103Z,99622.59
2023-04-14T01:34:50.199Z,99627.94
2023-04-14T01:37:32.120Z,99623.28
2023-04-14T01:40:02.659Z,99624.59
2023-04-14T01:42:35.734Z,99611.91
2023-04-14T01:45:16.886Z,99613.53
2023-04-14T01:47:45.344Z,99609.53
2023-04-14T01:50:13.044Z,99597.38
2023-04-14T01:52:42.821Z,99599.09
2023-04-14T01:55:10.730Z,99594.56
2023-04-14T01:57:41.816Z,99580.94
2023-04-14T02:00:10.549Z,99579.28
2023-04-14T02:02:47.736Z,99575.69
2023-04-14T02:05:17.188Z,99572.03
2023-04-14T02:07:45.848Z,99565.56
2023-04-14T02:10:15.950Z,99563.16
2023-04-14T02:12:43.533Z,99566.78
2023-04-14T02:15:13.680Z,99567.84
2023-04-14T02:17:41.941Z,99564.53
2023-04-14T02:20:09.733Z,99563.66
2023-04-14T02:22:36.948Z,99568.41
2023-04-14T02:25:04.350Z,99557.31
2023-04-14T02:27:35.238Z,99558.31
2023-04-14T02:30:08.232Z,99561.38
2023-04-14T02:32:39.478Z,99558.78
2023-04-14T02:35:10.567Z,99564.53
2023-04-14T02:37:40.151Z,99550.66
2023-04-14T02:40:27.779Z,99554.28
2023-04-14T02:43:07.863Z,99549.00
2023-04-14T02:45:36.820Z,99535.53
2023-04-14T02:48:07.705Z,99541.59
2023-04-14T02:50:35.477Z,99542.16
2023-04-14T02:53:17.399Z,99556.16
2023-04-14T02:55:46.707Z,99545.88
2023-04-14T02:58:15.819Z,99546.69
2023-04-14T03:00:43.252Z,99535.91
2023-04-14T03:03:12.796Z,99539.31
2023-04-14T03:05:43.137Z,99534.69
2023-04-14T03:08:11.352Z,99533.19
2023-04-14T03:10:41.303Z,99536.59
2023-04-14T03:13:09.742Z,99527.53
2023-04-14T03:15:37.865Z,99530.38
2023-04-14T03:18:06.383Z,99527.94
2023-04-14T03:20:34.933Z,99525.91
2023-04-14T03:23:06.428Z,99525.09
2023-04-14T03:25:42.303Z,99519.47
2023-04-14T03:28:19.424Z,99510.50
2023-04-14T03:30:50.900Z,99514.22
2023-04-14T03:33:20.683Z,99510.34
2023-04-14T03:35:50.050Z,99512.19
2023-04-14T03:38:17.805Z,99515.47
2023-04-14T03:40:47.840Z,99512.31
2023-04-14T03:43:22.457Z,99517.69
2023-04-14T03:45:56.918Z,99516.75
2023-04-14T03:48:26.359Z,99523.19
2023-04-14T03:50:54.956Z,99522.81
2023-04-14T03:53:22.064Z,99515.59
2023-04-14T03:55:51.475Z,99521.94
2023-04-14T03:58:20.061Z,99524.00
2023-04-14T04:00:49.247Z,99527.69
2023-04-14T04:03:18.010Z,99540.75
2023-04-14T04:05:45.447Z,99532.16
2023-04-14T04:08:12.718Z,99534.13
2023-04-14T04:10:40.153Z,99534.53
2023-04-14T04:13:09.097Z,99534.22
2023-04-14T04:15:37.812Z,99528.38
2023-04-14T04:18:06.819Z,99534.63
2023-04-14T04:20:36.207Z,99526.59
2023-04-14T04:23:04.126Z,99530.25
2023-04-14T04:25:33.029Z,99536.66
2023-04-14T04:28:06.856Z,99539.44
2023-04-14T04:30:35.305Z,99533.38
2023-04-14T04:33:03.721Z,99529.06
2023-04-14T04:35:31.722Z,99539.78
2023-04-14T04:38:00.898Z,99543.97
2023-04-14T04:40:35.200Z,99537.78
2023-04-14T04:43:02.344Z,99538.69
2023-04-14T04:45:42.276Z,99545.72
2023-04-14T04:48:09.549Z,99550.94
2023-04-14T04:50:36.769Z,99547.88
2023-04-14T04:53:03.995Z,99550.03
2023-04-14T04:55:31.028Z,99550.34
2023-04-14T04:57:58.122Z,99552.53
2023-04-14T05:00:26.607Z,99554.09
2023-04-14T05:02:53.761Z,99556.81
2023-04-14T05:05:21.056Z,99553.41
2023-04-14T05:07:48.256Z,99554.78
2023-04-14T05:10:15.320Z,99553.22
2023-04-14T05:12:42.331Z,99563.16
2023-04-14T05:15:09.784Z,99566.22
2023-04-14T05:17:37.252Z,99563.63
2023-04-14T05:20:05.709Z,99566.44
2023-04-14T05:22:32.946Z,99573.16
2023-04-14T05:25:00.046Z,99573.47
2023-04-14T05:27:27.148Z,99574.75
2023-04-14T05:29:54.205Z,99579.97
2023-04-14T05:32:22.321Z,99569.13
2023-04-14T05:34:49.632Z,99579.63
2023-04-14T05:37:17.876Z,99568.72
2023-04-14T05:39:45.131Z,99576.34
2023-04-14T05:42:12.210Z,99561.88
2023-04-14T05:44:39.347Z,99566.19
2023-04-14T05:47:06.738Z,99571.59
2023-04-14T05:49:33.896Z,99570.38
2023-04-14T05:52:01.200Z,99582.13
2023-04-14T05:54:28.265Z,99582.59
2023-04-14T05:56:56.439Z,99587.59
2023-04-14T05:59:23.503Z,99595.25
2023-04-14T06:01:50.809Z,99596.63
2023-04-14T06:04:18.355Z,99601.72
2023-04-14T06:06:45.695Z,99609.41
2023-04-14T06:09:12.737Z,99608.03
2023-04-14T06:11:40.409Z,99606.94
2023-04-14T06:14:07.828Z,99612.78
2023-04-14T06:16:34.950Z,99616.31
2023-04-14T06:19:02.348Z,99607.94
2023-04-14T06:21:29.596Z,99618.09
2023-04-14T06:23:56.706Z,99618.69
2023-04-14T06:26:23.912Z,99615.53
2023-04-14T06:28:50.993Z,99622.97
2023-04-14T06:31:18.046Z,99622.84
2023-04-14T06:33:45.094Z,99630.44
2023-04-14T06:36:13.209Z,99633.25
2023-04-14T06:38:40.347Z,99638.47
2023-04-14T06:41:07.385Z,99641.19
2023-04-14T06:43:34.414Z,99629.16
2023-04-14T06:46:01.852Z,99620.81
2023-04-14T06:48:28.968Z,99624.44
2023-04-14T06:50:56.505Z,99628.81
2023-04-14T06:53:23.825Z,99634.16
2023-04-14T06:55:59.526Z,99613.19
2023-04-14T06:58:27.714Z,99597.94
2023-04-14T07:01:04.026Z,99615.72
2023-04-14T07:03:31.372Z,99622.75
2023-04-14T07:06:05.302Z,99625.81
2023-04-14T07:08:33.019Z,99634.50
2023-04-14T07:11:02.359Z,99630.66
2023-04-14T07:13:29.651Z,99646.72
2023-04-14T07:15:56.759Z,99645.22
2023-04-14T07:18:23.928Z,99639.13
2023-04-14T07:20:51.766Z,99645.19
2023-04-14T07:23:18.917Z,99648.50
2023-04-14T07:25:52.718Z,99654.72
2023-04-14T07:28:20.641Z,99648.50
2023-04-14T07:30:48.299Z,99644.84
2023-04-14T07:33:19.085Z,99638.78
2023-04-14T07:36:00.696Z,99642.22
2023-04-14T07:38:29.738Z,99648.97
2023-04-14T07:40:57.577Z,99659.69
2023-04-14T07:43:24.768Z,99672.34
2023-04-14T07:45:52.548Z,99682.06
2023-04-14T07:48:21.427Z,99679.13
2023-04-14T07:50:50.020Z,99685.03
2023-04-14T07:53:17.201Z,99697.34
2023-04-14T07:55:44.318Z,99691.63
2023-04-14T07:58:15.273Z,99688.63
2023-04-14T08:00:43.038Z,99699.66
2023-04-14T08:03:10.323Z,99693.88
2023-04-14T08:05:37.889Z,99697.34
2023-04-14T08:08:05.220Z,99700.50
2023-04-14T08:10:32.376Z,99701.97
2023-04-14T08:13:01.021Z,99715.13
2023-04-14T08:15:29.487Z,99720.25
2023-04-14T08:17:57.076Z,99719.97
2023-04-14T08:20:24.218Z,99725.03
2023-04-14T08:22:51.438Z,99728.75
2023-04-14T08:25:18.512Z,99733.56
2023-04-14T08:27:45.694Z,99738.00
2023-04-14T08:30:12.928Z,99734.56
2023-04-14T08:32:40.052Z,99739.34
2023-04-14T08:35:38.739Z,99737.00
2023-04-14T08:37:54.292Z,99737.91
2023-04-14T08:40:25.294Z,99737.25
2023-04-14T08:42:52.334Z,99742.84
2023-04-14T08:45:19.972Z,99740.06
2023-04-14T08:47:48.016Z,99739.66
2023-04-14T08:50:18.239Z,99742.69
2023-04-14T08:52:46.106Z,99731.94
2023-04-14T08:55:13.678Z,99752.44
2023-04-14T08:57:43.568Z,99752.84
2023-04-14T09:00:11.246Z,99739.44
2023-04-14T09:02:40.313Z,99744.41
2023-04-14T09:05:08.086Z,99754.72
2023-04-14T09:07:35.977Z,99757.78
2023-04-14T09:10:03.375Z,99752.56
2023-04-14T09:12:30.527Z,99753.66
2023-04-14T09:14:58.803Z,99755.31
2023-04-14T09:17:27.567Z,99760.63
2023-04-14T09:20:38.635Z,99753.38
2023-04-14T09:22:42.011Z,99760.16
2023-04-14T09:25:09.558Z,99757.34
2023-04-14T09:27:36.992Z,99761.84
2023-04-14T09:30:04.325Z,99761.34
2023-04-14T09:32:31.494Z,99755.03
2023-04-14T09:34:58.810Z,99758.78
2023-04-14T09:37:26.149Z,99758.13
2023-04-14T09:39:55.322Z,99762.81
2023-04-14T09:42:37.381Z,99763.00
2023-04-14T09:45:05.622Z,99751.09
2023-04-14T09:47:32.896Z,99766.97
2023-04-14T09:50:01.050Z,99766.09
2023-04-14T09:52:38.257Z,99766.50
2023-04-14T09:55:08.191Z,99764.22
2023-04-14T09:57:37.420Z,99781.88
2023-04-14T10:00:24.525Z,99786.56
2023-04-14T10:02:56.368Z,99779.16
2023-04-14T10:05:27.387Z,99787.69
2023-04-14T10:07:54.960Z,99780.31
2023-04-14T10:10:22.718Z,99785.34
2023-04-14T10:12:52.691Z,99780.66
2023-04-14T10:15:19.810Z,99785.94
2023-04-14T10:17:47.259Z,99773.75
2023-04-14T10:20:15.495Z,99779.72
2023-04-14T10:22:42.973Z,99780.06
2023-04-14T10:25:10.701Z,99783.53
2023-04-14T10:27:38.249Z,99775.66
2023-04-14T10:30:06.438Z,99787.63
2023-04-14T10:32:34.929Z,99776.16
2023-04-14T10:35:06.429Z,99768.47
2023-04-14T10:37:34.934Z,99778.13
2023-04-14T10:40:23.186Z,99779.41
2023-04-14T10:42:57.261Z,99767.78
2023-04-14T10:45:24.486Z,99763.25
2023-04-14T10:47:51.750Z,99757.72
2023-04-14T10:50:22.339Z,99749.47
2023-04-14T10:52:50.189Z,99753.84
2023-04-14T10:55:17.835Z,99749.53
2023-04-14T10:57:46.154Z,99746.78
2023-04-14T11:00:13.429Z,99741.69
2023-04-14T11:02:53.848Z,99737.97
2023-04-14T11:05:21.564Z,99738.47
2023-04-14T11:07:50.263Z,99740.69
2023-04-14T11:10:17.566Z,99732.03
2023-04-14T11:12:46.012Z,99732.47
2023-04-14T11:15:13.423Z,99727.66
2023-04-14T11:17:41.621Z,99720.22
2023-04-14T11:20:15.713Z,99721.28
2023-04-14T11:22:46.309Z,99712.72
2023-04-14T11:25:14.485Z,99703.56
2023-04-14T11:27:42.897Z,99712.00
2023-04-14T11:30:14.327Z,99710.34
2023-04-14T11:32:51.748Z,99705.66
2023-04-14T11:35:19.684Z,99698.69
2023-04-14T11:37:46.921Z,99696.16
2023-04-14T11:40:16.460Z,99693.81
2023-04-14T11:42:44.573Z,99696.09
2023-04-14T11:45:13.582Z,99689.03
2023-04-14T11:47:41.212Z,99688.38
2023-04-14T11:50:08.635Z,99683.50
2023-04-14T11:52:35.912Z,99681.41
2023-04-14T11:55:03.124Z,99688.81
2023-04-14T11:57:30.231Z,99685.28
2023-04-14T11:59:57.397Z,99690.25
2023-04-14T12:02:24.610Z,99681.59
2023-04-14T12:04:52.077Z,99687.00
2023-04-14T12:07:20.278Z,99686.19
2023-04-14T12:09:49.047Z,99679.16
2023-04-14T12:12:17.320Z,99680.75
2023-04-14T12:14:48.445Z,99678.91
2023-04-14T12:17:16.863Z,99667.84
2023-04-14T12:19:45.081Z,99673.63
2023-04-14T12:22:12.696Z,99667.72
2023-04-14T12:24:40.977Z,99668.00
2023-04-14T12:27:09.808Z,99675.63
2023-04-14T12:29:37.060Z,99665.53
2023-04-14T12:32:14.205Z,99666.00
2023-04-14T12:34:41.580Z,99664.50
2023-04-14T12:37:09.841Z,99664.66
2023-04-14T12:39:50.640Z,99663.50
2023-04-14T12:42:18.260Z,99642.41
2023-04-14T12:45:01.331Z,99655.25
2023-04-14T12:47:32.658Z,99651.81
2023-04-14T12:50:19.996Z,99643.44
2023-04-14T12:52:47.639Z,99634.56
2023-04-14T12:55:24.958Z,99643.97
2023-04-14T12:57:53.253Z,99647.84
2023-04-14T13:00:24.624Z,99641.47
2023-04-14T13:02:51.940Z,99632.50
2023-04-14T13:05:19.405Z,99635.66
2023-04-14T13:07:46.569Z,99636.72
2023-04-14T13:10:14.056Z,99625.50
2023-04-14T13:12:41.983Z,99618.06
2023-04-14T13:15:09.311Z,99620.84
2023-04-14T13:17:56.456Z,99613.28
2023-04-14T13:20:23.579Z,99613.47
2023-04-14T13:22:51.037Z,99608.91
2023-04-14T13:25:18.111Z,99611.78
2023-04-14T13:27:45.321Z,99608.84
2023-04-14T13:30:12.555Z,99608.00
2023-04-14T13:32:39.646Z,99602.44
2023-04-14T13:35:06.972Z,99594.97
2023-04-14T13:37:34.084Z,99589.88
2023-04-14T13:40:01.590Z,99580.50
2023-04-14T13:42:28.722Z,99583.06
2023-04-14T13:44:55.794Z,99584.75
2023-04-14T13:47:23.003Z,99579.19
2023-04-14T13:49:50.122Z,99578.16
2023-04-14T13:52:17.149Z,99580.31
2023-04-14T13:54:44.177Z,99568.88
2023-04-14T13:57:11.273Z,99564.00
2023-04-14T13:59:38.369Z,99569.34
2023-04-14T14:02:06.535Z,99557.31
2023-04-14T14:04:36.364Z,99558.25
2023-04-14T14:07:03.560Z,99566.44
2023-04-14T14:09:30.708Z,99556.25
2023-04-14T14:11:57.916Z,99550.75
2023-04-14T14:14:25.004Z,99553.78
2023-04-14T14:16:52.132Z,99557.31
2023-04-14T14:19:19.337Z,99557.91
2023-04-14T14:21:46.431Z,99554.78
2023-04-14T14:24:14.007Z,99551.00
2023-04-14T14:26:41.104Z,99553.06
2023-04-14T14:29:08.153Z,99553.75
2023-04-14T14:31:35.498Z,99545.50
2023-04-14T14:34:02.758Z,99547.59
2023-04-14T14:36:30.419Z,99540.22
2023-04-14T14:38:57.599Z,99542.75
2023-04-14T14:41:24.651Z,99543.66
2023-04-14T14:43:51.808Z,99546.88
2023-04-14T14:46:18.993Z,99533.72
2023-04-14T14:48:46.837Z,99535.63
2023-04-14T14:51:13.860Z,99543.28
2023-04-14T14:53:40.856Z,99539.69
2023-04-14T14:56:07.953Z,99539.84
2023-04-14T14:58:35.039Z,99538.63
2023-04-14T15:01:02.079Z,99550.00
2023-04-14T15:03:29.382Z,99546.28
2023-04-14T15:05:56.719Z,99546.91
2023-04-14T15:08:24.023Z,99545.81
2023-04-14T15:10:51.779Z,99548.44
2023-04-14T15:13:18.922Z,99553.91
2023-04-14T15:15:46.333Z,99544.16
2023-04-14T15:18:13.558Z,99550.09
2023-04-14T15:20:41.299Z,99556.34
2023-04-14T15:23:08.646Z,99552.50
2023-04-14T15:25:35.809Z,99541.84
2023-04-14T15:28:03.009Z,99551.72
2023-04-14T15:30:30.032Z,99546.13
2023-04-14T15:32:58.181Z,99551.59
2023-04-14T15:35:26.198Z,99551.50
2023-04-14T15:37:53.313Z,99546.56
2023-04-14T15:40:20.511Z,99549.81
2023-04-14T15:42:47.713Z,99549.41
2023-04-14T15:45:14.841Z,99546.69
2023-04-14T15:47:42.047Z,99552.72
2023-04-14T15:50:10.214Z,99559.00
2023-04-14T15:52:38.786Z,99563.03
2023-04-14T15:55:06.314Z,99557.94
2023-04-14T15:57:33.435Z,99564.28
2023-04-14T16:00:02.069Z,99571.34
2023-04-14T16:02:29.375Z,99565.88
2023-04-14T16:04:58.069Z,99574.16
2023-04-14T16:07:27.192Z,99571.03
2023-04-14T16:09:54.307Z,99575.38
2023-04-14T16:12:21.360Z,99576.16
2023-04-14T16:14:48.570Z,99585.19
2023-04-14T16:17:15.644Z,99594.25
2023-04-14T16:19:42.740Z,99589.97
2023-04-14T16:22:09.882Z,99585.66
2023-04-14T16:24:37.470Z,99586.84
2023-04-14T16:27:04.560Z,99590.41
2023-04-14T16:29:31.864Z,99601.81
2023-04-14T16:31:58.906Z,99584.53
2023-04-14T16:34:26.227Z,99582.16
2023-04-14T16:36:53.256Z,99588.44
2023-04-14T16:39:22.139Z,99584.91
2023-04-14T16:41:49.169Z,99594.34
2023-04-14T16:44:16.425Z,99600.22
2023-04-14T16:46:43.658Z,99604.53
2023-04-14T16:49:10.982Z,99605.69
2023-04-14T16:51:38.505Z,99612.66
2023-04-14T16:54:06.141Z,99612.97
2023-04-14T16:56:36.218Z,99617.28
2023-04-14T16:59:04.507Z,99623.03
2023-04-14T17:01:31.784Z,99629.22
2023-04-14T17:03:59.264Z,99622.97
2023-04-14T17:06:27.111Z,99628.13
2023-04-14T17:08:54.136Z,99631.56
2023-04-14T17:11:21.606Z,99628.34
2023-04-14T17:13:48.708Z,99624.63
2023-04-14T17:16:15.846Z,99627.84
2023-04-14T17:18:44.008Z,99626.94
2023-04-14T17:21:11.170Z,99630.91
2023-04-14T17:23:38.349Z,99634.41
2023-04-14T17:26:05.855Z,99626.50
2023-04-14T17:28:34.398Z,99621.50
2023-04-14T17:31:02.073Z,99611.66
2023-04-14T17:33:29.275Z,99609.66
2023-04-14T17:35:57.078Z,99616.56
2023-04-14T17:38:24.282Z,99615.38
2023-04-14T17:40:53.343Z,99617.34
2023-04-14T17:43:20.983Z,99603.59
2023-04-14T17:45:50.413Z,99605.13
2023-04-14T17:48:18.046Z,99601.59
2023-04-14T17:50:46.354Z,99605.94
2023-04-14T17:53:15.509Z,99612.06
2023-04-14T17:55:43.415Z,99621.81
2023-04-14T17:58:10.680Z,99626.44
2023-04-14T18:00:37.998Z,99627.56
2023-04-14T18:03:05.209Z,99629.13
2023-04-14T18:05:32.376Z,99633.34
2023-04-14T18:07:59.495Z,99633.22
2023-04-14T18:10:26.999Z,99637.88
2023-04-14T18:12:54.073Z,99641.22
2023-04-14T18:15:21.616Z,99642.63
2023-04-14T18:17:48.934Z,99645.31
2023-04-14T18:20:22.128Z,99655.00
2023-04-14T18:22:49.726Z,99665.81
2023-04-14T18:25:19.269Z,99667.59
2023-04-14T18:30:19.436Z,99669.81
2023-04-14T18:32:56.845Z,99679.72
2023-04-14T18:35:25.428Z,99690.78
2023-04-14T18:37:53.250Z,99687.84
2023-04-14T18:40:22.527Z,99687.31
2023-04-14T18:42:54.816Z,99691.31
2023-04-14T18:45:22.087Z,99696.13
2023-04-14T18:47:49.905Z,99697.91
2023-04-14T18:50:17.094Z,99709.19
2023-04-14T18:52:44.211Z,99717.94
2023-04-14T18:55:11.560Z,99724.69
2023-04-14T18:57:39.164Z,99732.84
2023-04-14T19:00:06.582Z,99727.09
2023-04-14T19:02:34.498Z,99736.59
2023-04-14T19:05:02.411Z,99740.03
2023-04-14T19:07:29.722Z,99738.75
2023-04-14T19:09:56.861Z,99739.72
2023-04-14T19:12:28.603Z,99745.09
2023-04-14T19:14:56.105Z,99747.44
2023-04-14T19:17:23.249Z,99757.06
2023-04-14T19:19:50.503Z,99754.06
2023-04-14T19:22:17.908Z,99757.09
2023-04-14T19:24:45.030Z,99758.75
2023-04-14T19:27:12.122Z,99759.53
2023-04-14T19:29:39.167Z,99765.16
2023-04-14T19:32:06.254Z,99768.56
2023-04-14T19:34:33.817Z,99763.78
2023-04-14T19:37:00.913Z,99762.19
2023-04-14T19:39:28.540Z,99767.38
2023-04-14T19:41:56.415Z,99767.94
2023-04-14T19:44:23.891Z,99759.91
2023-04-14T19:46:51.062Z,99759.75
2023-04-14T19:49:18.179Z,99763.78
2023-04-14T19:51:45.515Z,99770.47
2023-04-14T19:54:12.543Z,99770.25
2023-04-14T19:56:39.695Z,99770.84
2023-04-14T19:59:08.096Z,99774.28
2023-04-14T20:01:35.351Z,99776.69
2023-04-14T20:04:06.912Z,99780.16
2023-04-14T20:06:39.492Z,99782.44
2023-04-14T20:09:06.639Z,99786.53
2023-04-14T20:11:33.729Z,99793.81
2023-04-14T20:14:00.861Z,99795.84
2023-04-14T20:16:27.950Z,99805.34
2023-04-14T20:18:55.472Z,99796.13
2023-04-14T20:21:22.630Z,99794.41
2023-04-14T20:23:49.902Z,99794.03
2023-04-14T20:26:17.308Z,99796.41
2023-04-14T20:28:45.580Z,99804.75
2023-04-14T20:31:13.516Z,99811.72
2023-04-14T20:33:40.827Z,99810.72
2023-04-14T20:36:08.086Z,99806.09
2023-04-14T20:38:35.482Z,99809.34
2023-04-14T20:41:02.610Z,99817.00
2023-04-14T20:43:34.220Z,99816.81
2023-04-14T20:46:01.504Z,99809.66
2023-04-14T20:48:30.369Z,99814.28
2023-04-14T20:50:57.848Z,99811.97
2023-04-14T20:53:27.076Z,99819.38
2023-04-14T20:55:54.973Z,99818.31
2023-04-14T20:58:22.041Z,99822.09
2023-04-14T21:00:49.325Z,99823.94
2023-04-14T21:03:17.159Z,99814.78
2023-04-14T21:05:44.345Z,99823.25
2023-04-14T21:08:12.579Z,99826.16
2023-04-14T21:11:14.824Z,99822.38
2023-04-14T21:15:25.358Z,99824.69
2023-04-14T21:16:15.684Z,99824.31
2023-04-14T21:18:42.778Z,99824.75
2023-04-14T21:21:11.397Z,99819.41
2023-04-14T21:23:38.471Z,99817.56
2023-04-14T21:26:05.498Z,99817.53
2023-04-14T21:28:32.663Z,99817.38
2023-04-14T21:31:01.539Z,99823.97
2023-04-14T21:33:28.878Z,99822.28
2023-04-14T21:35:56.359Z,99815.16
2023-04-14T21:38:23.965Z,99808.50
2023-04-14T21:40:51.568Z,99808.75
2023-04-14T21:43:18.648Z,99800.91
2023-04-14T21:45:45.845Z,99797.22
2023-04-14T21:48:13.004Z,99806.38
2023-04-14T21:50:40.107Z,99805.50
2023-04-14T21:53:07.200Z,99797.41
2023-04-14T21:55:35.154Z,99794.84
2023-04-14T21:58:03.707Z,99790.97
2023-04-14T22:00:31.037Z,99789.28
2023-04-14T22:02:58.204Z,99795.84
2023-04-14T22:05:25.399Z,99804.03
2023-04-14T22:07:53.765Z,99805.25
2023-04-14T22:10:21.789Z,99813.94
2023-04-14T22:12:49.087Z,99816.75
2023-04-14T22:15:16.838Z,99811.16
2023-04-14T22:17:44.815Z,99814.84
2023-04-14T22:20:12.124Z,99802.41
2023-04-14T22:22:39.202Z,99800.22
2023-04-14T22:25:06.707Z,99798.19
2023-04-14T22:27:34.451Z,99795.22
2023-04-14T22:30:02.590Z,99792.75
2023-04-14T22:32:29.963Z,99798.94
2023-04-14T22:34:57.148Z,99799.53
2023-04-14T22:37:24.203Z,99796.72
2023-04-14T22:39:51.497Z,99795.38
2023-04-14T22:42:18.634Z,99796.53
2023-04-14T22:44:47.992Z,99801.09
2023-04-14T22:47:15.557Z,99793.41
2023-04-14T22:49:42.664Z,99805.81
2023-04-14T22:52:09.712Z,99805.03
2023-04-14T22:54:36.820Z,99805.81
2023-04-14T22:57:04.127Z,99807.31
2023-04-14T22:59:32.062Z,99797.81
2023-04-14T23:01:59.319Z,99800.88
2023-04-14T23:04:26.778Z,99801.22
2023-04-14T23:06:53.928Z,99799.19
2023-04-14T23:09:21.211Z,99798.56
2023-04-14T23:11:48.496Z,99796.47
2023-04-14T23:14:15.706Z,99797.28
2023-04-14T23:16:43.805Z,99792.28
2023-04-14T23:19:10.924Z,99793.75
2023-04-14T23:21:38.876Z,99794.88
2023-04-14T23:24:06.601Z,99780.47
2023-04-14T23:26:33.625Z,99786.59
2023-04-14T23:29:01.524Z,99795.13
2023-04-14T23:31:28.909Z,99792.69
2023-04-14T23:33:56.249Z,99792.28
2023-04-14T23:36:23.345Z,99784.78
2023-04-14T23:38:50.408Z,99778.50
2023-04-14T23:41:18.084Z,99772.66
2023-04-14T23:43:45.857Z,99776.50
2023-04-14T23:46:12.956Z,99772.34
2023-04-14T23:48:39.992Z,99770.53
2023-04-14T23:51:14.790Z,99759.34
2023-04-14T23:53:48.069Z,99761.94
2023-04-14T23:56:15.142Z,99762.78
2023-04-14T23:58:43.068Z,99764.00
